Aviation Digital Data Service (ADDS)

Output produced by METARs form (1127 UTC 26 May 2015)
found at http://www.aviationweather.gov/adds/metars/
 
KDEC 261034Z 2611/2706 17011KT 5SM BR OVC008 
     FM261300 18015G20KT 6SM -SHRA VCTS OVC010CB 
     FM261800 22018G26KT P6SM VCTS OVC025CB 
     FM270000 22010KT P6SM SCT050